Dobrodošli na spletni strani vremenske postaje Senovo. Vse informacije so informativnega značaja, saj vremenska postaja ni del državne mreže meteoroloških postaj. AKTUALNIH OBVESTIL NI.


Sneg/Led Od: 23-02-2018 00:00 Do: 23:59 Opozorilo za: Sneg/Led Stopnja: Rumena info button

Pogled proti Armezu več informacij Pogled proti Armezu


Lisca več informacij Lisca


Radar strel več informacij blitzortung!


opozorilo za sneg/led več informacij rain snow radar


Obiščite še:

Template documentation
and downloads

And another site



Weather Underground, zgodovina - Tekstovno

Dnevni povzetek za December 18, 2017 Enote:  Metrično    Angleško   Obe
« Predhodni Dan
Naslednji Dan »
Dnevni Tedenski Mesečni Letni Po meri
  Višja: Nižja: Povprečje:
Temperatura: -17.8 °C -20.3 °C -18.3 °C
Točka rosišča: -17.8 °C -21.1 °C -19.1 °C
Vlažnost: Humidity % 0 % 90 %
Hitrost vetra: 0 km/h 0 km/h 2.4 km/h
Sunki vetra: 0 km/h - -
Veter:- - WSW
Zračni tlak: 0 hPa 0 hPa -
Padavine: 0 mm    
Historical Graphs
 
 
Tabelarni podarki za December 18, 2017
Čas Temperatura Točka rosišča Zračni tlak Veter Hitrost vetra Sunki vetra Vlažnost Intenziteta padavin (urna)
-17.8 °C -17.8 °C 0 hPa Calm     Humidity % 0 mm
00:02 -17.9 °C -18.4 °C 34567.7 hPa SW 3.9 km/h 12.2 km/h 94 % 0 mm
00:07 -17.9 °C -18.4 °C 34567.7 hPa SSW 3.7 km/h 12.2 km/h 94 % 0 mm
00:12 -17.9 °C -18.4 °C 34567.7 hPa South 3.7 km/h 10.3 km/h 94 % 0 mm
00:15 -17.9 °C -18.4 °C 34567.7 hPa SSW 4.3 km/h 10.3 km/h 94 % 0 mm
00:20 -17.9 °C -18.4 °C 34567.7 hPa SW 4.2 km/h 11.6 km/h 94 % 0 mm
00:23 -17.9 °C -18.4 °C 34567.7 hPa SW 3.9 km/h 11.6 km/h 94 % 0 mm
00:27 -17.9 °C -18.4 °C 34567.7 hPa SW 4.2 km/h 11.6 km/h 94 % 0 mm
00:32 -17.9 °C -18.4 °C 34567.7 hPa SW 4.3 km/h 10.3 km/h 94 % 0 mm
00:35 -18 °C -18.4 °C 34567.7 hPa WSW 6.3 km/h 12.7 km/h 94 % 0 mm
00:37 -18 °C -18.4 °C 34567.7 hPa WSW 6.3 km/h 12.7 km/h 94 % 0 mm
00:40 -18 °C -18.4 °C 34567.7 hPa West 5.5 km/h 12.7 km/h 94 % 0 mm
00:46 -18.1 °C -18.5 °C 34567.7 hPa North 2.9 km/h 7.6 km/h 94 % 0 mm
00:48 -18.1 °C -18.5 °C 34567.7 hPa North 3.1 km/h 7.6 km/h 94 % 0 mm
00:53 -18.1 °C -18.5 °C 34567.7 hPa North 3.4 km/h 7.6 km/h 94 % 0 mm
00:55 -18.1 °C -18.5 °C 34567.7 hPa North 3.4 km/h 7.6 km/h 94 % 0 mm
00:59 -18.1 °C -18.5 °C 34567.7 hPa WSW 3.7 km/h 8.9 km/h 94 % 0 mm
01:01 -18.1 °C -18.5 °C 34567.7 hPa WSW 2.9 km/h 8.9 km/h 94 % 0 mm
01:06 -18.1 °C -18.5 °C 34567.7 hPa SW 1.8 km/h 8.9 km/h 94 % 0 mm
01:07 -18.1 °C -18.5 °C 34567.7 hPa SSW 1.3 km/h 5.6 km/h 94 % 0 mm
01:11 -18.1 °C -18.5 °C 34567.7 hPa SSW 2.9 km/h 8.9 km/h 94 % 0 mm
01:15 -18.1 °C -18.5 °C 34601.5 hPa SSW 4.2 km/h 8.9 km/h 94 % 0 mm
01:17 -18.1 °C -18.5 °C 34601.5 hPa SSW 5.5 km/h 8.9 km/h 94 % 0 mm
01:22 -18.1 °C -18.5 °C 34601.5 hPa SW 4.7 km/h 8.9 km/h 94 % 0 mm
01:23 -18.1 °C -18.5 °C 34601.5 hPa SW 4.7 km/h 8.9 km/h 94 % 0 mm
01:28 -18.1 °C -18.5 °C 34601.5 hPa WSW 4.3 km/h 8.9 km/h 94 % 0 mm
01:33 -18.1 °C -18.5 °C 34567.7 hPa SW 1.6 km/h 5.6 km/h 94 % 0 mm
01:35 -18.1 °C -18.5 °C 34567.7 hPa SW 0.8 km/h 5.6 km/h 94 % 0 mm
01:38 -18.1 °C -18.5 °C 34567.7 hPa NE 1 km/h 6.4 km/h 94 % 0 mm
01:41 -18.1 °C -18.5 °C 34567.7 hPa NE 1 km/h 6.4 km/h 94 % 0 mm
01:43 -18.1 °C -18.5 °C 34567.7 hPa NE 1 km/h 6.4 km/h 94 % 0 mm
01:48 -18.1 °C -18.5 °C 34601.5 hPa WSW 0.3 km/h 4.2 km/h 94 % 0 mm
01:49 -18.1 °C -18.5 °C 34601.5 hPa WSW 0.3 km/h 4.2 km/h 94 % 0 mm
01:54 -18.1 °C -18.5 °C 34601.5 hPa WNW 0.8 km/h 6.4 km/h 94 % 0 mm
01:56 -18.1 °C -18.5 °C 34601.5 hPa NW 0.5 km/h 6.4 km/h 94 % 0 mm
02:01 -18.1 °C -18.5 °C 34601.5 hPa SW 0.8 km/h 6.9 km/h 94 % 0 mm
02:06 -18.1 °C -18.5 °C 34601.5 hPa SW 4.2 km/h 10.3 km/h 94 % 0 mm
02:08 -18.1 °C -18.5 °C 34601.5 hPa SW 5.1 km/h 11.1 km/h 94 % 0 mm
02:12 -18.1 °C -18.5 °C 34601.5 hPa SW 6.8 km/h 11.1 km/h 94 % 0 mm
02:14 -18.1 °C -18.5 °C 34601.5 hPa SW 6.8 km/h 11.1 km/h 94 % 0 mm
02:19 -18.1 °C -18.5 °C 34567.7 hPa SW 5 km/h 8 km/h 94 % 0 mm
02:21 -18.1 °C -18.5 °C 34567.7 hPa SW 4.7 km/h 8.9 km/h 94 % 0 mm
02:22 -18.1 °C -18.5 °C 34567.7 hPa SW 3.9 km/h 8.9 km/h 94 % 0 mm
02:27 -18.1 °C -18.5 °C 34567.7 hPa NNE 1.8 km/h 8.9 km/h 94 % 0 mm
02:32 -18.1 °C -18.5 °C 34601.5 hPa ENE 0.5 km/h 6.9 km/h 94 % 0 mm
02:34 -18.1 °C -18.5 °C 34601.5 hPa NE 1.3 km/h 6.9 km/h 94 % 0 mm
02:37 -18.1 °C -18.6 °C 34601.5 hPa NNE 1.3 km/h 6.9 km/h 94 % 0 mm
02:40 -18.1 °C -18.6 °C 34601.5 hPa NNE 1.3 km/h 6.9 km/h 94 % 0 mm
02:43 -18.1 °C -18.5 °C 34601.5 hPa NNW 1.3 km/h 5.6 km/h 94 % 0 mm
02:46 -18.1 °C -18.5 °C 34567.7 hPa SW 1.3 km/h 5.6 km/h 94 % 0 mm
02:51 -18.1 °C -18.6 °C 34567.7 hPa SW 3.9 km/h 9.8 km/h 94 % 0 mm
02:53 -18.1 °C -18.6 °C 34567.7 hPa WSW 5 km/h 9.8 km/h 94 % 0 mm
02:58 -18.1 °C -18.6 °C 34567.7 hPa WNW 5.5 km/h 9.8 km/h 94 % 0 mm
03:00 -18.2 °C -18.7 °C 34567.7 hPa NW 3.9 km/h 6.9 km/h 94 % 0 mm
03:04 -18.1 °C -18.6 °C 34567.7 hPa NNW 2.6 km/h 7.6 km/h 94 % 0 mm
03:08 -18.2 °C -18.7 °C 34567.7 hPa NNW 2.1 km/h 7.6 km/h 94 % 0 mm
03:13 -18.2 °C -18.7 °C 34567.7 hPa NNW 2.6 km/h 7.6 km/h 94 % 0 mm
03:18 -18.2 °C -18.7 °C 34567.7 hPa NW 3.7 km/h 9.8 km/h 94 % 0 mm
03:19 -18.2 °C -18.7 °C 34567.7 hPa NW 3.9 km/h 9.8 km/h 94 % 0 mm
03:23 -18.2 °C -18.7 °C 34567.7 hPa West 5.1 km/h 9.8 km/h 94 % 0 mm
03:28 -18.2 °C -18.7 °C 34567.7 hPa West 3.4 km/h 9.8 km/h 94 % 0 mm
03:29 -18.2 °C -18.7 °C 34567.7 hPa West 3.4 km/h 9.8 km/h 94 % 0 mm
03:30 -18.2 °C -18.7 °C 34567.7 hPa West 3.1 km/h 8 km/h 94 % 0 mm
03:34 -18.2 °C -18.7 °C 34567.7 hPa NW 2.9 km/h 9.8 km/h 94 % 0 mm
03:36 -18.2 °C -18.7 °C 34567.7 hPa NNW 2.9 km/h 9.8 km/h 94 % 0 mm
03:39 -18.2 °C -18.7 °C 34567.7 hPa NNW 4.3 km/h 9.8 km/h 94 % 0 mm
03:44 -18.2 °C -18.7 °C 34567.7 hPa NNW 3.4 km/h 9.3 km/h 94 % 0 mm
03:47 -18.2 °C -18.7 °C 34567.7 hPa NW 2.1 km/h 8.9 km/h 94 % 0 mm
03:53 -18.2 °C -18.7 °C 34567.7 hPa SW 1.6 km/h 8 km/h 94 % 0 mm
03:54 -18.2 °C -18.7 °C 34567.7 hPa SW 2.1 km/h 8 km/h 94 % 0 mm
03:55 -18.2 °C -18.7 °C 34567.7 hPa SW 2.6 km/h 9.3 km/h 94 % 0 mm
04:00 -18.2 °C -18.7 °C 34567.7 hPa SSW 5.5 km/h 9.3 km/h 94 % 0 mm
04:02 -18.2 °C -18.7 °C 34567.7 hPa SW 5.6 km/h 9.3 km/h 94 % 0 mm
04:07 -18.2 °C -18.7 °C 34567.7 hPa SW 5.5 km/h 9.3 km/h 94 % 0 mm
04:09 -18.2 °C -18.7 °C 34567.7 hPa WSW 3.9 km/h 9.3 km/h 94 % 0 mm
04:16 -18.2 °C -18.7 °C 34567.7 hPa West 0.8 km/h 4.2 km/h 94 % 0 mm
04:21 -18.2 °C -18.7 °C 34567.7 hPa SW 1.6 km/h 5.6 km/h 94 % 0 mm
04:24 -18.2 °C -18.7 °C 34567.7 hPa SW 1.6 km/h 5.6 km/h 94 % 0 mm
04:29 -18.2 °C -18.7 °C 34567.7 hPa NW 1.3 km/h 8.9 km/h 94 % 0 mm
04:30 -18.2 °C -18.7 °C 34567.7 hPa NW 1.3 km/h 8.9 km/h 94 % 0 mm
04:31 -18.2 °C -18.7 °C 34567.7 hPa NW 1.3 km/h 8.9 km/h 94 % 0 mm
04:36 -18.2 °C -18.7 °C 34567.7 hPa West 4.3 km/h 10.3 km/h 94 % 0 mm
04:38 -18.2 °C -18.7 °C 34567.7 hPa West 5.5 km/h 10.3 km/h 94 % 0 mm
04:43 -18.2 °C -18.7 °C 34567.7 hPa WSW 3.4 km/h 8 km/h 94 % 0 mm
04:44 -18.2 °C -18.7 °C 34567.7 hPa SW 3.1 km/h 8 km/h 94 % 0 mm
04:49 -18.3 °C -18.8 °C 34567.7 hPa NNW 2.1 km/h 6.4 km/h 93 % 0 mm
04:52 -18.3 °C -18.8 °C 34567.7 hPa NW 3.1 km/h 6.4 km/h 93 % 0 mm
04:55 -18.3 °C -18.8 °C 34567.7 hPa NW 2.9 km/h 6.4 km/h 93 % 0 mm
05:00 -18.3 °C -18.8 °C 34567.7 hPa WNW 0.8 km/h 6.4 km/h 93 % 0 mm
05:03 -18.3 °C -18.8 °C 34567.7 hPa NNW 0.3 km/h 3.4 km/h 94 % 0 mm
05:08 -18.3 °C -18.8 °C 34567.7 hPa NNW 0.5 km/h 3.4 km/h 94 % 0 mm
05:09 -18.3 °C -18.8 °C 34567.7 hPa NNW 0.5 km/h 3.4 km/h 94 % 0 mm
05:14 -18.3 °C -18.8 °C 34567.7 hPa NNW 1.8 km/h 6.9 km/h 94 % 0 mm
05:18 -18.3 °C -18.8 °C 34567.7 hPa NNW 3.1 km/h 6.9 km/h 94 % 0 mm
05:21 -18.3 °C -18.8 °C 34567.7 hPa NNW 3.9 km/h 6.9 km/h 94 % 0 mm
05:26 -18.3 °C -18.8 °C 34567.7 hPa NNW 4.2 km/h 8 km/h 94 % 0 mm
05:28 -18.3 °C -18.8 °C 34567.7 hPa NNW 4.3 km/h 9.3 km/h 94 % 0 mm
05:32 -18.4 °C -18.8 °C 34567.7 hPa NNW 5.1 km/h 9.3 km/h 94 % 0 mm
05:33 -18.4 °C -18.8 °C 34567.7 hPa NNW 4.2 km/h 9.3 km/h 94 % 0 mm
05:39 -18.4 °C -18.9 °C 34567.7 hPa West 2.9 km/h 6.4 km/h 93 % 0 mm
05:40 -18.4 °C -18.9 °C 34567.7 hPa West 2.6 km/h 6.4 km/h 93 % 0 mm
05:45 -18.4 °C -18.9 °C 34567.7 hPa WNW 2.6 km/h 6.4 km/h 93 % 0 mm
05:50 -18.4 °C -18.9 °C 34567.7 hPa WSW 2.9 km/h 6.9 km/h 93 % 0 mm
05:52 -18.4 °C -18.9 °C 34567.7 hPa WSW 2.9 km/h 6.9 km/h 93 % 0 mm
05:57 -18.4 °C -18.9 °C 34567.7 hPa WSW 1.3 km/h 6.4 km/h 93 % 0 mm
06:00 -18.4 °C -18.9 °C 34567.7 hPa West 0.8 km/h 6.9 km/h 93 % 0 mm
06:04 -18.4 °C -18.9 °C 34567.7 hPa WNW 2.3 km/h 6.9 km/h 93 % 0 mm
06:05 -18.4 °C -18.9 °C 34567.7 hPa NW 2.9 km/h 7.6 km/h 93 % 0 mm
06:10 -18.4 °C -19 °C 34567.7 hPa NNW 2.9 km/h 7.6 km/h 93 % 0 mm
06:11 -18.4 °C -19 °C 34567.7 hPa NNW 2.9 km/h 7.6 km/h 93 % 0 mm
06:16 -18.4 °C -19 °C 34601.5 hPa North 2.3 km/h 8.9 km/h 93 % 0 mm
06:17 -18.4 °C -19 °C 34601.5 hPa NNW 2.3 km/h 8.9 km/h 93 % 0 mm
06:19 -18.4 °C -19 °C 34601.5 hPa NNW 4.2 km/h 9.3 km/h 93 % 0 mm
06:24 -18.4 °C -19 °C 34601.5 hPa North 5.6 km/h 9.3 km/h 93 % 0 mm
06:27 -18.4 °C -19 °C 34601.5 hPa NNW 6.3 km/h 9.3 km/h 93 % 0 mm
06:29 -18.5 °C -19.1 °C 34601.5 hPa North 6.3 km/h 9.8 km/h 93 % 0 mm
06:32 -18.5 °C -19.1 °C 34601.5 hPa NNW 6 km/h 9.8 km/h 93 % 0 mm
06:36 -18.5 °C -19.1 °C 34601.5 hPa NNW 6.3 km/h 9.8 km/h 93 % 0 mm
06:40 -18.5 °C -19.1 °C 34601.5 hPa NNW 5 km/h 9.3 km/h 93 % 0 mm
06:42 -18.5 °C -19.1 °C 34601.5 hPa NW 2.9 km/h 8 km/h 93 % 0 mm
06:46 -18.5 °C -19.1 °C 34567.7 hPa West 1 km/h 4.2 km/h 93 % 0 mm
06:51 -18.5 °C -19.1 °C 34567.7 hPa SW 1 km/h 4.2 km/h 93 % 0 mm
06:54 -18.5 °C -19.1 °C 34567.7 hPa SW 1.6 km/h 5.6 km/h 93 % 0 mm
06:59 -18.5 °C -19.1 °C 34601.5 hPa SSW 1.3 km/h 8.9 km/h 93 % 0 mm
07:01 -18.6 °C -19.1 °C 34601.5 hPa SSW 2.1 km/h 8.9 km/h 93 % 0 mm
07:05 -18.5 °C -19.1 °C 34601.5 hPa SW 4.2 km/h 10.3 km/h 93 % 0 mm
07:10 -18.6 °C -19.1 °C 34601.5 hPa West 5 km/h 10.3 km/h 93 % 0 mm
07:11 -18.6 °C -19.1 °C 34601.5 hPa West 4.2 km/h 10.3 km/h 93 % 0 mm
07:16 -18.6 °C -19.1 °C 34601.5 hPa NW 1.6 km/h 8 km/h 93 % 0 mm
07:17 -18.6 °C -19.1 °C 34601.5 hPa North 1.3 km/h 6.4 km/h 93 % 0 mm
07:18 -18.6 °C -19.1 °C 34601.5 hPa NE 1 km/h 6.4 km/h 93 % 0 mm
07:23 -18.5 °C -19.1 °C 34601.5 hPa ESE 3.7 km/h 9.3 km/h 93 % 0 mm
07:28 -18.5 °C -19.1 °C 34601.5 hPa East 6 km/h 9.8 km/h 93 % 0 mm
07:29 -18.5 °C -19.1 °C 34601.5 hPa East 6 km/h 9.8 km/h 93 % 0 mm
07:34 -18.6 °C -19.1 °C 34635.4 hPa East 6.8 km/h 9.8 km/h 93 % 0 mm
07:35 -18.6 °C -19.1 °C 34635.4 hPa ENE 6.8 km/h 9.8 km/h 93 % 0 mm
07:40 -18.6 °C -19.1 °C 34635.4 hPa ENE 5.5 km/h 8.9 km/h 93 % 0 mm
07:45 -18.6 °C -19.1 °C 34635.4 hPa ENE 2.6 km/h 8 km/h 93 % 0 mm
07:47 -18.6 °C -19.1 °C 34635.4 hPa NE 1 km/h 4.2 km/h 93 % 0 mm
07:51 -18.6 °C -19.1 °C 34635.4 hPa NNE 1 km/h 5.6 km/h 93 % 0 mm
07:56 -18.6 °C -19.1 °C 34635.4 hPa NNE 2.1 km/h 6.4 km/h 93 % 0 mm
08:02 -18.6 °C -19.1 °C 34635.4 hPa NNW 2.3 km/h 6.9 km/h 93 % 0 mm
08:03 -18.6 °C -19.1 °C 34635.4 hPa NNW 2.1 km/h 6.9 km/h 93 % 0 mm
08:08 -18.6 °C -19.1 °C 34635.4 hPa NW 0.8 km/h 5.1 km/h 93 % 0 mm
08:10 -18.6 °C -19.1 °C 34635.4 hPa North 0.5 km/h 6.4 km/h 93 % 0 mm
08:14 -18.6 °C -19.1 °C 34635.4 hPa North 1 km/h 6.4 km/h 93 % 0 mm
08:15 -18.6 °C -19.1 °C 34635.4 hPa North 1 km/h 6.4 km/h 93 % 0 mm
08:19 -18.6 °C -19.1 °C 34635.4 hPa NNW 2.1 km/h 7.6 km/h 93 % 0 mm
08:21 -18.6 °C -19.1 °C 34635.4 hPa NNW 2.6 km/h 8 km/h 93 % 0 mm
08:26 -18.6 °C -19.1 °C 34635.4 hPa NNW 4.7 km/h 9.8 km/h 93 % 0 mm
08:27 -18.6 °C -19.1 °C 34635.4 hPa NNW 5 km/h 9.8 km/h 93 % 0 mm
08:32 -18.6 °C -19.1 °C 34635.4 hPa NW 3.9 km/h 9.8 km/h 93 % 0 mm
08:33 -18.6 °C -19.1 °C 34635.4 hPa NNW 3.4 km/h 8 km/h 93 % 0 mm
08:38 -18.6 °C -19.1 °C 34635.4 hPa North 1.8 km/h 6.4 km/h 93 % 0 mm
08:39 -18.6 °C -19.1 °C 34635.4 hPa North 1.8 km/h 6.4 km/h 93 % 0 mm
08:44 -18.6 °C -19.1 °C 34635.4 hPa NNW 2.3 km/h 6.9 km/h 93 % 0 mm
08:45 -18.6 °C -19.1 °C 34635.4 hPa NNW 2.6 km/h 6.9 km/h 93 % 0 mm
08:50 -18.6 °C -19.1 °C 34635.4 hPa NNW 2.1 km/h 6.9 km/h 93 % 0 mm
08:53 -18.6 °C -19.1 °C 34635.4 hPa NNW 3.1 km/h 6.9 km/h 93 % 0 mm
08:58 -18.5 °C -19.1 °C 34635.4 hPa North 3.9 km/h 8.9 km/h 93 % 0 mm
09:02 -18.5 °C -19.1 °C 34635.4 hPa North 4.2 km/h 8.9 km/h 93 % 0 mm
09:06 -18.5 °C -19.1 °C 34635.4 hPa North 3.1 km/h 8.9 km/h 92 % 0 mm
09:10 -18.5 °C -19.1 °C 34635.4 hPa NNW 1.6 km/h 6.4 km/h 92 % 0 mm
09:15 -18.4 °C -19.1 °C 34635.4 hPa North 1.6 km/h 6.4 km/h 92 % 0 mm
09:18 -18.4 °C -19 °C 34635.4 hPa North 3.4 km/h 9.3 km/h 93 % 0 mm
09:21 -18.4 °C -19.1 °C 34635.4 hPa NNW 4.7 km/h 9.3 km/h 92 % 0 mm
09:26 -18.5 °C -19.1 °C 34635.4 hPa NNW 3.9 km/h 9.3 km/h 92 % 0 mm
09:28 -18.5 °C -19.1 °C 34635.4 hPa NW 3.1 km/h 9.3 km/h 92 % 0 mm
09:33 -18.5 °C -19.1 °C 34635.4 hPa SW 3.7 km/h 8 km/h 92 % 0 mm
09:38 -18.4 °C -19.1 °C 34635.4 hPa SSW 5.5 km/h 8 km/h 92 % 0 mm
09:43 -18.4 °C -19.1 °C 34635.4 hPa SSW 4.7 km/h 7.6 km/h 92 % 0 mm
09:47 -18.4 °C -19 °C 34635.4 hPa SSW 4.7 km/h 7.6 km/h 92 % 0 mm
09:52 -18.4 °C -19 °C 34635.4 hPa SE 4.7 km/h 6.4 km/h 92 % 0 mm
09:54 -18.4 °C -19 °C 34635.4 hPa ESE 4.3 km/h 6.4 km/h 92 % 0 mm
09:59 -18.4 °C -19 °C 34635.4 hPa South 3.1 km/h 9.3 km/h 92 % 0 mm
10:02 -18.4 °C -19 °C 34635.4 hPa SW 3.7 km/h 9.3 km/h 92 % 0 mm
10:07 -18.3 °C -18.9 °C 34635.4 hPa WSW 4.3 km/h 9.3 km/h 92 % 0 mm
10:10 -18.3 °C -18.9 °C 34635.4 hPa WNW 4.3 km/h 7.6 km/h 92 % 0 mm
10:15 -18.3 °C -18.9 °C 34601.5 hPa NNW 2.9 km/h 6.9 km/h 92 % 0 mm
10:16 -18.3 °C -18.9 °C 34601.5 hPa NNW 2.9 km/h 6.9 km/h 92 % 0 mm
10:18 -18.3 °C -18.9 °C 34601.5 hPa NNW 2.3 km/h 6.9 km/h 92 % 0 mm
10:23 -18.3 °C -18.9 °C 34601.5 hPa SSW 2.1 km/h 6.9 km/h 92 % 0 mm
10:28 -18.3 °C -18.9 °C 34601.5 hPa South 3.7 km/h 8 km/h 92 % 0 mm
10:30 -18.3 °C -18.9 °C 34635.4 hPa South 4.2 km/h 8 km/h 92 % 0 mm
10:33 -18.3 °C -18.9 °C 34635.4 hPa South 2.9 km/h 8 km/h 92 % 0 mm
10:38 -18.2 °C -18.8 °C 34635.4 hPa SSE 0.5 km/h 3.4 km/h 92 % 0 mm
10:41 -18.2 °C -18.8 °C 34635.4 hPa NNW 0.5 km/h 6.9 km/h 92 % 0 mm
10:46 -18.2 °C -18.8 °C 34601.5 hPa NNW 1 km/h 6.9 km/h 92 % 0 mm
10:48 -18.2 °C -18.8 °C 34601.5 hPa NW 1.3 km/h 8 km/h 92 % 0 mm
10:53 -18.1 °C -18.7 °C 34601.5 hPa West 3.7 km/h 9.8 km/h 92 % 0 mm
10:58 -18.1 °C -18.7 °C 34601.5 hPa SW 6.8 km/h 9.8 km/h 92 % 0 mm
11:03 -18 °C -18.7 °C 34601.5 hPa SSW 5.6 km/h 8.9 km/h 92 % 0 mm
11:08 -17.9 °C -18.5 °C 34601.5 hPa SSW 3.4 km/h 11.1 km/h 92 % 0 mm
11:10 -17.9 °C -18.5 °C 34601.5 hPa West 3.9 km/h 11.1 km/h 92 % 0 mm
11:12 -17.9 °C -18.6 °C 34601.5 hPa NNW 4.2 km/h 11.1 km/h 92 % 0 mm
11:16 -17.9 °C -18.6 °C 34635.4 hPa NNW 6 km/h 12.2 km/h 92 % 0 mm
11:21 -17.9 °C -18.6 °C 34635.4 hPa NNW 6.3 km/h 12.2 km/h 92 % 0 mm
11:26 -17.9 °C -18.6 °C 34635.4 hPa NW 3.7 km/h 9.3 km/h 92 % 0 mm
11:30 -17.9 °C -18.5 °C 34635.4 hPa WNW 3.4 km/h 9.3 km/h 92 % 0 mm
11:35 -17.8 °C -18.4 °C 34635.4 hPa West 4.3 km/h 9.3 km/h 92 % 0 mm
11:40 -17.8 °C -18.4 °C 34635.4 hPa West 3.4 km/h 8.9 km/h 92 % 0 mm
11:45 -17.7 °C -18.3 °C 34601.5 hPa WNW 2.9 km/h 8 km/h 92 % 0 mm
11:49 -17.6 °C -18.2 °C 34601.5 hPa WNW 3.1 km/h 9.3 km/h 92 % 0 mm
11:50 -17.6 °C -18.2 °C 34601.5 hPa WNW 3.4 km/h 9.3 km/h 92 % 0 mm
11:55 -17.4 °C -18.1 °C 34601.5 hPa West 4.2 km/h 9.3 km/h 92 % 0 mm
11:56 -17.4 °C -18 °C 34601.5 hPa West 4.3 km/h 9.3 km/h 92 % 0 mm
12:01 -17.3 °C -17.9 °C 34669.3 hPa WSW 5.6 km/h 9.3 km/h 92 % 0 mm
12:02 -17.3 °C -17.9 °C 34669.3 hPa SW 6.3 km/h 11.1 km/h 92 % 0 mm
12:08 -17.2 °C -17.8 °C 34669.3 hPa SW 7.2 km/h 11.1 km/h 92 % 0 mm
12:11 -17.1 °C -17.7 °C 34669.3 hPa SW 7.7 km/h 15 km/h 92 % 0 mm
12:14 -17.1 °C -17.7 °C 34669.3 hPa SW 7.7 km/h 15 km/h 92 % 0 mm
12:32 -16.7 °C -17.4 °C 34635.4 hPa SSW 5.6 km/h 9.3 km/h 92 % 0 mm
12:37 -16.4 °C -17.2 °C 34635.4 hPa SSW 8.5 km/h 12.7 km/h 91 % 0 mm
12:42 -16.4 °C -17.1 °C 34635.4 hPa SSW 10.9 km/h 12.7 km/h 91 % 0 mm
12:43 -16.4 °C -17.1 °C 34635.4 hPa SSW 10.6 km/h 12.7 km/h 91 % 0 mm
12:48 -16.4 °C -17.2 °C 34635.4 hPa SSW 9.8 km/h 12.7 km/h 91 % 0 mm
12:54 -16.5 °C -17.3 °C 34635.4 hPa SSW 6.3 km/h 12.2 km/h 90 % 0 mm
12:55 -16.5 °C -17.3 °C 34635.4 hPa SSW 5.1 km/h 11.1 km/h 90 % 0 mm
12:56 -16.6 °C -17.4 °C 34635.4 hPa SSW 4.3 km/h 11.1 km/h 90 % 0 mm
13:00 -16.6 °C -17.4 °C 34635.4 hPa SSW 3.7 km/h 8.9 km/h 90 % 0 mm
13:01 -16.6 °C -17.4 °C 34635.4 hPa SSW 3.7 km/h 8.9 km/h 90 % 0 mm
13:06 -16.6 °C -17.4 °C 34635.4 hPa SW 5.5 km/h 8.9 km/h 89 % 0 mm
13:10 -16.6 °C -17.5 °C 34635.4 hPa WSW 5.1 km/h 8.9 km/h 89 % 0 mm
13:15 -16.7 °C -17.6 °C 34601.5 hPa WSW 3.9 km/h 8.9 km/h 89 % 0 mm
13:16 -16.7 °C -17.6 °C 34601.5 hPa ESE 3.7 km/h 8.9 km/h 89 % 0 mm
13:21 -16.7 °C -17.7 °C 34601.5 hPa East 3.4 km/h 8.9 km/h 88 % 0 mm
13:23 -16.7 °C -17.6 °C 34601.5 hPa East 3.7 km/h 8.9 km/h 89 % 0 mm
13:28 -16.7 °C -17.7 °C 34601.5 hPa NE 3.4 km/h 8.9 km/h 88 % 0 mm
13:32 -16.8 °C -17.8 °C 34601.5 hPa NNE 2.9 km/h 8.9 km/h 88 % 0 mm
13:34 -16.8 °C -17.8 °C 34601.5 hPa North 2.3 km/h 8.9 km/h 88 % 0 mm
13:37 -16.8 °C -17.8 °C 34601.5 hPa NNE 1.6 km/h 8.9 km/h 88 % 0 mm
13:42 -16.7 °C -17.7 °C 34601.5 hPa NNW 4.7 km/h 6.4 km/h 88 % 0 mm
13:43 -16.7 °C -17.8 °C 34601.5 hPa NNW 3.7 km/h 6.4 km/h 87 % 0 mm
13:45 -16.7 °C -17.8 °C 34601.5 hPa NNW 2.6 km/h 6.4 km/h 87 % 0 mm
13:49 -16.7 °C -17.8 °C 34601.5 hPa NNW 1.8 km/h 6.4 km/h 87 % 0 mm
13:54 -16.7 °C -17.8 °C 34601.5 hPa WSW 0.8 km/h 6.4 km/h 87 % 0 mm
14:01 -16.7 °C -17.8 °C 34601.5 hPa NNW 5.6 km/h 5.6 km/h 87 % 0 mm
14:02 -16.7 °C -17.8 °C 34567.7 hPa SSE 5.5 km/h 6.4 km/h 86 % 0 mm
14:07 -16.6 °C -17.8 °C 0 hPa SW 5.5 km/h 12.7 km/h 86 % 0 mm
14:09 -16.6 °C -17.8 °C 34567.7 hPa SW 3.9 km/h 12.7 km/h 86 % 0 mm
14:14 -16.7 °C -17.8 °C 34601.5 hPa SW 2.1 km/h 12.7 km/h 86 % 0 mm
14:16 -16.7 °C -17.8 °C 34601.5 hPa SW 1.6 km/h 12.7 km/h 86 % 0 mm
14:20 -16.6 °C -17.8 °C 34601.5 hPa SW 1.6 km/h 12.7 km/h 86 % 0 mm
14:21 -16.7 °C -17.8 °C 34601.5 hPa SW 1.6 km/h 12.7 km/h 86 % 0 mm
14:26 -16.7 °C -17.9 °C 34601.5 hPa SW 1.6 km/h 12.7 km/h 85 % 0 mm
14:30 -16.7 °C -17.9 °C 34601.5 hPa SW 1.6 km/h 12.7 km/h 85 % 0 mm
14:33 -16.7 °C -17.9 °C 34601.5 hPa SW 1.6 km/h 12.7 km/h 85 % 0 mm
14:38 -16.6 °C -17.9 °C 34601.5 hPa WSW 2.9 km/h 12.7 km/h 85 % 0 mm
14:39 -16.6 °C -17.9 °C 34601.5 hPa WSW 3.1 km/h 12.7 km/h 85 % 0 mm
14:40 -16.6 °C -17.9 °C 34601.5 hPa WSW 3.7 km/h 12.7 km/h 85 % 0 mm
14:44 -16.6 °C -17.9 °C 34601.5 hPa WSW 4.3 km/h 12.7 km/h 85 % 0 mm
14:49 -16.7 °C -17.9 °C 34601.5 hPa WSW 4.7 km/h 12.7 km/h 85 % 0 mm
14:53 -16.7 °C -17.9 °C 34601.5 hPa WSW 3.7 km/h 12.7 km/h 85 % 0 mm
14:56 -16.8 °C -18 °C 34601.5 hPa SW 3.1 km/h 12.7 km/h 85 % 0 mm
15:01 -16.8 °C -18.2 °C 34601.5 hPa SW 3.4 km/h 12.7 km/h 84 % 0 mm
15:02 -16.8 °C -18.2 °C 34601.5 hPa SW 3.9 km/h 12.7 km/h 84 % 0 mm
15:03 -16.9 °C -18.2 °C 34601.5 hPa WSW 4.3 km/h 12.7 km/h 84 % 0 mm
15:08 -17 °C -18.3 °C 34601.5 hPa SW 3.4 km/h 12.7 km/h 84 % 0 mm
15:09 -17 °C -18.3 °C 34601.5 hPa SW 3.4 km/h 12.7 km/h 84 % 0 mm
15:14 -17.1 °C -18.4 °C 34601.5 hPa SW 3.1 km/h 12.7 km/h 84 % 0 mm
15:19 -17.2 °C -18.7 °C 34601.5 hPa SW 3.1 km/h 12.7 km/h 83 % 0 mm
15:24 -17.3 °C -18.6 °C 34601.5 hPa SW 1.6 km/h 12.7 km/h 84 % 0 mm
15:28 -17.4 °C -18.8 °C 34601.5 hPa SW 1.6 km/h 12.7 km/h 83 % 0 mm
15:33 -17.4 °C -18.8 °C 34601.5 hPa SW 1.6 km/h 12.7 km/h 83 % 0 mm
15:34 -17.4 °C -18.8 °C 34601.5 hPa SW 1.6 km/h 12.7 km/h 83 % 0 mm
15:39 -17.6 °C -19 °C 34601.5 hPa SW 1.8 km/h 12.7 km/h 83 % 0 mm
15:40 -17.6 °C -19 °C 34601.5 hPa SW 1.8 km/h 12.7 km/h 83 % 0 mm
15:45 -17.6 °C -19 °C 34635.4 hPa West 3.1 km/h 12.7 km/h 83 % 0 mm
15:47 -17.6 °C -19 °C 34635.4 hPa WNW 3.9 km/h 12.7 km/h 83 % 0 mm
15:52 -17.7 °C -19.1 °C 34635.4 hPa WNW 4.3 km/h 12.7 km/h 83 % 0 mm
15:57 -17.7 °C -19.1 °C 34635.4 hPa WNW 4.2 km/h 12.7 km/h 83 % 0 mm
15:59 -17.8 °C -19.2 °C 34635.4 hPa WNW 3.7 km/h 12.7 km/h 83 % 0 mm
16:04 -17.8 °C -19.3 °C 34635.4 hPa WSW 2.9 km/h 12.7 km/h 83 % 0 mm
16:06 -17.9 °C -19.3 °C 34635.4 hPa WSW 2.3 km/h 12.7 km/h 83 % 0 mm
16:11 -17.9 °C -19.3 °C 34635.4 hPa SW 1.6 km/h 12.7 km/h 83 % 0 mm
16:15 -18.1 °C -19.5 °C 34635.4 hPa SW 1.6 km/h 12.7 km/h 83 % 0 mm
16:17 -18.1 °C -19.5 °C 34635.4 hPa SW 1.6 km/h 12.7 km/h 83 % 0 mm
16:22 -18.1 °C -19.5 °C 34635.4 hPa SW 2.3 km/h 12.7 km/h 83 % 0 mm
16:27 -18.2 °C -19.6 °C 34635.4 hPa WSW 2.9 km/h 12.7 km/h 83 % 0 mm
16:32 -18.2 °C -19.6 °C 34601.5 hPa SW 2.1 km/h 12.7 km/h 83 % 0 mm
16:36 -18.3 °C -19.7 °C 34601.5 hPa SW 1.6 km/h 12.7 km/h 83 % 0 mm
16:41 -18.3 °C -19.7 °C 34601.5 hPa SW 1.3 km/h 10.9 km/h 84 % 0 mm
16:46 -18.4 °C -19.7 °C 34635.4 hPa Calm     84 % 0 mm
16:48 -18.4 °C -19.7 °C 34635.4 hPa Calm     84 % 0 mm
16:53 -18.4 °C -19.8 °C 34635.4 hPa Calm     84 % 0 mm
16:56 -18.5 °C -19.8 °C 34635.4 hPa Calm     84 % 0 mm
17:01 -18.6 °C -19.9 °C 34601.5 hPa Calm     84 % 0 mm
17:03 -18.6 °C -19.9 °C 34601.5 hPa Calm     84 % 0 mm
17:08 -18.6 °C -19.9 °C 34601.5 hPa Calm     84 % 0 mm
17:09 -18.6 °C -19.9 °C 34601.5 hPa Calm     84 % 0 mm
17:14 -17.8 °C -17 °C 34635.4 hPa Calm     0 % 0 mm
17:15 -18.7 °C -19.9 °C 34635.4 hPa Calm     84 % 0 mm
17:17 -18.7 °C -19.9 °C 34635.4 hPa Calm     84 % 0 mm
17:21 -18.7 °C -19.9 °C 34635.4 hPa Calm     84 % 0 mm
17:27 -18.7 °C -20.1 °C 34635.4 hPa NW 0.5 km/h 5.1 km/h 84 % 0 mm
17:30 -18.8 °C -20.1 °C 34635.4 hPa NW 0.5 km/h 5.1 km/h 84 % 0 mm
17:33 -18.8 °C -20 °C 34635.4 hPa NW 0.5 km/h 5.1 km/h 85 % 0 mm
17:38 -18.8 °C -20.1 °C 34635.4 hPa Calm     85 % 0 mm
17:41 -18.8 °C -20.1 °C 34635.4 hPa Calm     85 % 0 mm
17:44 -18.8 °C -20.1 °C 34635.4 hPa Calm     85 % 0 mm
17:46 -18.9 °C -20.1 °C 34635.4 hPa Calm     85 % 0 mm
17:50 -18.9 °C -20.1 °C 34635.4 hPa Calm     85 % 0 mm
17:53 -18.9 °C -20.1 °C 34635.4 hPa Calm     85 % 0 mm
17:58 -18.9 °C -20.2 °C 34635.4 hPa Calm     85 % 0 mm
18:00 -18.9 °C -20.1 °C 34635.4 hPa NW 0.3 km/h 4.2 km/h 86 % 0 mm
18:05 -18.9 °C -20.1 °C 34635.4 hPa NW 0.5 km/h 4.2 km/h 86 % 0 mm
18:07 -19 °C -20.1 °C 34635.4 hPa NW 0.5 km/h 4.2 km/h 86 % 0 mm
18:11 -19 °C -20.1 °C 34635.4 hPa Calm     86 % 0 mm
18:16 -19.1 °C -20.2 °C 34669.3 hPa Calm     86 % 0 mm
18:17 -19.1 °C -20.2 °C 34669.3 hPa Calm     86 % 0 mm
18:20 -19.1 °C -20.2 °C 34669.3 hPa Calm     86 % 0 mm
18:23 -19.1 °C -20.2 °C 34669.3 hPa Calm     86 % 0 mm
18:28 -19.1 °C -20.2 °C 34669.3 hPa Calm     86 % 0 mm
18:29 -19.1 °C -20.2 °C 34669.3 hPa Calm     86 % 0 mm
18:34 -19.2 °C -20.3 °C 34669.3 hPa Calm     86 % 0 mm
18:35 -19.2 °C -20.3 °C 34669.3 hPa Calm     86 % 0 mm
18:40 -19.2 °C -20.3 °C 34669.3 hPa Calm     86 % 0 mm
18:41 -19.2 °C -20.3 °C 34669.3 hPa Calm     86 % 0 mm
18:43 -19.2 °C -20.3 °C 34669.3 hPa Calm     86 % 0 mm
18:46 -19.3 °C -20.4 °C 34669.3 hPa Calm     86 % 0 mm
18:51 -19.3 °C -20.4 °C 34669.3 hPa Calm   5.6 km/h 86 % 0 mm
18:52 -19.3 °C -20.4 °C 34669.3 hPa NW 0.3 km/h 5.6 km/h 86 % 0 mm
18:57 -19.3 °C -20.3 °C 34669.3 hPa NW 0.3 km/h 5.6 km/h 87 % 0 mm
19:02 -19.3 °C -20.3 °C 34669.3 hPa NW 0.3 km/h 2.9 km/h 87 % 0 mm
19:04 -19.3 °C -20.3 °C 34669.3 hPa Calm   2.9 km/h 87 % 0 mm
19:07 -19.3 °C -20.4 °C 34669.3 hPa Calm   2.9 km/h 87 % 0 mm
19:12 -19.3 °C -20.4 °C 34669.3 hPa Calm     87 % 0 mm
19:13 -19.3 °C -20.4 °C 34669.3 hPa Calm     87 % 0 mm
19:16 -19.3 °C -20.4 °C 34669.3 hPa Calm     87 % 0 mm
19:19 -19.3 °C -20.4 °C 34669.3 hPa Calm     87 % 0 mm
19:25 -19.4 °C -20.4 °C 34669.3 hPa Calm     87 % 0 mm
19:30 -19.4 °C -20.4 °C 34669.3 hPa Calm     87 % 0 mm
19:32 -19.4 °C -20.4 °C 34669.3 hPa Calm     87 % 0 mm
19:35 -19.4 °C -20.4 °C 34669.3 hPa Calm     87 % 0 mm
19:39 -19.4 °C -20.4 °C 34669.3 hPa Calm     87 % 0 mm
19:44 -19.4 °C -20.4 °C 34669.3 hPa Calm     87 % 0 mm
19:46 -19.3 °C -20.3 °C 34703.1 hPa Calm     88 % 0 mm
19:51 -19.3 °C -20.3 °C 34703.1 hPa Calm     88 % 0 mm
19:53 -19.3 °C -20.3 °C 34703.1 hPa NW 0.3 km/h 5.1 km/h 88 % 0 mm
19:58 -19.3 °C -20.3 °C 34703.1 hPa NW 0.8 km/h 5.1 km/h 88 % 0 mm
20:02 -19.3 °C -20.2 °C 34703.1 hPa NW 1 km/h 5.1 km/h 88 % 0 mm
20:03 -19.3 °C -20.2 °C 34703.1 hPa NW 0.8 km/h 4.2 km/h 88 % 0 mm
20:08 -19.2 °C -20.2 °C 34703.1 hPa West 0.5 km/h 8 km/h 88 % 0 mm
20:12 -19.2 °C -20.2 °C 34703.1 hPa West 3.1 km/h 8 km/h 88 % 0 mm
20:13 -19.2 °C -20.2 °C 34703.1 hPa West 3.4 km/h 8 km/h 88 % 0 mm
20:18 -19.2 °C -20.1 °C 34669.3 hPa WSW 4.3 km/h 8 km/h 88 % 0 mm
20:19 -19.2 °C -20.1 °C 34669.3 hPa WSW 3.7 km/h 7.6 km/h 88 % 0 mm
20:24 -19.2 °C -20.1 °C 34669.3 hPa North 0.5 km/h   88 % 0 mm
20:29 -19.2 °C -20.1 °C 34703.1 hPa Calm     89 % 0 mm
20:32 -19.2 °C -20.1 °C 34703.1 hPa Calm     89 % 0 mm
20:37 -19.1 °C -19.9 °C 34703.1 hPa Calm     89 % 0 mm
20:38 -19.1 °C -19.9 °C 34703.1 hPa Calm     89 % 0 mm
20:39 -19.1 °C -19.9 °C 34703.1 hPa Calm     89 % 0 mm
20:43 -19.1 °C -19.9 °C 34703.1 hPa Calm     89 % 0 mm
20:48 -19.1 °C -19.9 °C 34703.1 hPa Calm     89 % 0 mm
20:49 -19.1 °C -19.9 °C 34703.1 hPa Calm     89 % 0 mm
20:53 -19.1 °C -19.9 °C 34703.1 hPa Calm     89 % 0 mm
20:54 -19.1 °C -19.9 °C 34703.1 hPa Calm     89 % 0 mm
20:59 -19.1 °C -19.9 °C 34703.1 hPa Calm     89 % 0 mm
21:02 -19.1 °C -19.9 °C 34703.1 hPa Calm     89 % 0 mm
21:07 -19.1 °C -19.9 °C 34703.1 hPa SSW 0.3 km/h 4.2 km/h 89 % 0 mm
21:12 -19.1 °C -19.9 °C 34703.1 hPa SSW 1.3 km/h 5.1 km/h 89 % 0 mm
21:17 -19.1 °C -19.9 °C 34740.4 hPa SSW 1 km/h 5.1 km/h 89 % 0 mm
21:19 -19.2 °C -20.1 °C 34740.4 hPa SW 0.5 km/h 3.4 km/h 89 % 0 mm
21:24 -19.2 °C -20.1 °C 34740.4 hPa Calm     89 % 0 mm
21:29 -19.2 °C -20 °C 34740.4 hPa Calm     90 % 0 mm
21:34 -19.2 °C -20 °C 34740.4 hPa Calm     90 % 0 mm
21:36 -19.3 °C -20.1 °C 34740.4 hPa Calm     90 % 0 mm
21:41 -19.3 °C -20.1 °C 34740.4 hPa Calm     90 % 0 mm
21:44 -19.3 °C -20.1 °C 34740.4 hPa Calm     90 % 0 mm
21:45 -19.3 °C -20.1 °C 34740.4 hPa Calm     90 % 0 mm
21:50 -19.3 °C -20.1 °C 34740.4 hPa Calm     90 % 0 mm
21:51 -19.3 °C -20.1 °C 34740.4 hPa Calm     90 % 0 mm
21:56 -19.4 °C -20.2 °C 34740.4 hPa Calm     90 % 0 mm
21:57 -19.4 °C -20.2 °C 34740.4 hPa Calm     90 % 0 mm
22:02 -19.4 °C -20.2 °C 34740.4 hPa Calm     90 % 0 mm
22:04 -19.5 °C -20.3 °C 34740.4 hPa Calm     90 % 0 mm
22:09 -19.6 °C -20.3 °C 34740.4 hPa Calm     90 % 0 mm
22:10 -19.6 °C -20.3 °C 34740.4 hPa Calm     90 % 0 mm
22:15 -19.6 °C -20.4 °C 34774.2 hPa Calm     90 % 0 mm
22:16 -19.6 °C -20.4 °C 34774.2 hPa Calm     90 % 0 mm
22:18 -19.6 °C -20.4 °C 34774.2 hPa Calm     90 % 0 mm
22:23 -19.7 °C -20.4 °C 34774.2 hPa Calm     90 % 0 mm
22:26 -19.7 °C -20.4 °C 34774.2 hPa Calm     90 % 0 mm
22:31 -19.7 °C -20.5 °C 34774.2 hPa Calm     90 % 0 mm
22:36 -19.8 °C -20.6 °C 34774.2 hPa Calm     90 % 0 mm
22:37 -19.8 °C -20.6 °C 34774.2 hPa Calm     90 % 0 mm
22:42 -19.8 °C -20.6 °C 34774.2 hPa Calm     90 % 0 mm
22:47 -19.8 °C -20.6 °C 34774.2 hPa Calm     90 % 0 mm
22:49 -19.8 °C -20.6 °C 34774.2 hPa Calm     90 % 0 mm
22:53 -19.9 °C -20.7 °C 34774.2 hPa Calm     90 % 0 mm
22:54 -19.9 °C -20.7 °C 34774.2 hPa Calm     90 % 0 mm
22:59 -19.9 °C -20.7 °C 34774.2 hPa Calm     90 % 0 mm
23:04 -20 °C -20.8 °C 34774.2 hPa Calm     90 % 0 mm
23:05 -20 °C -20.8 °C 34774.2 hPa Calm     90 % 0 mm
23:08 -20 °C -20.8 °C 34774.2 hPa Calm     90 % 0 mm
23:13 -20.1 °C -20.8 °C 34774.2 hPa Calm     90 % 0 mm
23:17 -20.1 °C -20.8 °C 34774.2 hPa Calm     90 % 0 mm
23:22 -20.1 °C -20.9 °C 34774.2 hPa Calm     90 % 0 mm
23:23 -20.1 °C -20.9 °C 34774.2 hPa Calm     90 % 0 mm
23:28 -20.1 °C -20.9 °C 34774.2 hPa Calm     90 % 0 mm
23:32 -20.2 °C -20.9 °C 34740.4 hPa Calm     90 % 0 mm
23:33 -20.2 °C -20.9 °C 34740.4 hPa Calm     90 % 0 mm
23:38 -20.2 °C -21 °C 34740.4 hPa Calm     90 % 0 mm
23:43 -20.2 °C -21 °C 34740.4 hPa Calm     90 % 0 mm
23:44 -20.2 °C -21 °C 34740.4 hPa Calm     90 % 0 mm
23:46 -20.3 °C -21.1 °C 34740.4 hPa Calm     90 % 0 mm
23:51 -20.3 °C -21.1 °C 34740.4 hPa Calm     90 % 0 mm
23:52 -20.3 °C -21.1 °C 34740.4 hPa Calm     90 % 0 mm
23:54 -20.3 °C -21.1 °C 34740.4 hPa Calm     90 % 0 mm
23:59 -20.3 °C -21.1 °C 34740.4 hPa Calm     90 % 0 mm
Vremenska postaja Senovo
Podatki zbrani iz Weather Underground - 3.5 mb

Script developed by  Jim McMurry - jmcmurry@mwt.net Adapted for the template by  Wim van der Kuil - Leuven-Template.eu

Vremenski podatki so objavljeni na:

European Weather Network

WeatherCloud

Weather Underground

AWEKAS

HAMweather, WeatherForYou, PWS Weather

MapView

Geostik

Slovenia weather network

Oprema, ki se uporablja:

Vremenski program
Cumulus

Vremenski server
Asus

Cumulus

Asus